createdAt,value
2024-02-03T00:00:02.626Z,58.92
2024-02-03T00:01:02.749Z,55.69
2024-02-03T00:02:02.631Z,54.67
2024-02-03T00:03:02.603Z,59.07
2024-02-03T00:04:02.746Z,56.95
2024-02-03T00:05:02.586Z,56.74
2024-02-03T00:06:02.594Z,57.40
2024-02-03T00:07:02.651Z,59.16
2024-02-03T00:08:02.555Z,56.73
2024-02-03T00:09:02.543Z,56.15
2024-02-03T00:10:02.534Z,59.61
2024-02-03T00:11:02.534Z,59.94
2024-02-03T00:12:02.495Z,57.99
2024-02-03T00:13:02.520Z,57.94
2024-02-03T00:14:02.469Z,59.59
2024-02-03T00:15:02.468Z,58.67
2024-02-03T00:16:02.468Z,57.75
2024-02-03T00:17:02.480Z,56.50
2024-02-03T00:18:02.448Z,56.71
2024-02-03T00:19:02.501Z,55.61
2024-02-03T00:20:02.408Z,58.34
2024-02-03T00:21:02.429Z,57.83
2024-02-03T00:22:02.403Z,56.91
2024-02-03T00:23:02.401Z,58.01
2024-02-03T00:24:02.406Z,53.57
2024-02-03T00:25:02.392Z,58.68
2024-02-03T00:26:02.428Z,58.12
2024-02-03T00:27:03.464Z,57.18
2024-02-03T00:28:02.350Z,55.57
2024-02-03T00:29:02.314Z,55.97
2024-02-03T00:30:02.305Z,58.80
2024-02-03T00:31:03.312Z,59.37
2024-02-03T00:32:02.291Z,51.71
2024-02-03T00:33:02.428Z,55.79
2024-02-03T00:34:02.352Z,52.70
2024-02-03T00:35:02.253Z,57.32
2024-02-03T00:36:02.299Z,59.16
2024-02-03T00:37:02.226Z,55.12
2024-02-03T00:38:02.228Z,56.54
2024-02-03T00:39:02.794Z,54.23
2024-02-03T00:40:03.196Z,54.53
2024-02-03T00:41:02.176Z,52.71
2024-02-03T00:42:02.294Z,54.48
2024-02-03T00:43:02.201Z,55.63
2024-02-03T00:44:02.191Z,55.79
2024-02-03T00:45:02.265Z,57.19
2024-02-03T00:46:02.198Z,56.88
2024-02-03T00:47:02.207Z,58.33
2024-02-03T00:48:02.214Z,61.99
2024-02-03T00:49:02.188Z,57.46
2024-02-03T00:50:02.195Z,56.62
2024-02-03T00:51:02.208Z,53.44
2024-02-03T00:52:02.125Z,59.88
2024-02-03T00:53:02.098Z,53.62
2024-02-03T00:54:02.100Z,51.18
2024-02-03T00:55:02.123Z,51.98
2024-02-03T00:56:02.074Z,50.84
2024-02-03T00:57:02.102Z,52.24
2024-02-03T00:58:02.111Z,53.85
2024-02-03T00:59:02.172Z,55.30
2024-02-03T01:00:02.073Z,60.07
2024-02-03T01:01:02.070Z,60.77
2024-02-03T01:02:01.975Z,58.59
2024-02-03T01:03:01.979Z,54.62
2024-02-03T01:04:02.199Z,54.14
2024-02-03T01:05:01.956Z,55.03
2024-02-03T01:06:02.054Z,48.38
2024-02-03T01:07:02.001Z,54.70
2024-02-03T01:08:01.902Z,53.38
2024-02-03T01:09:01.927Z,54.17
2024-02-03T01:10:01.902Z,54.04
2024-02-03T01:11:01.883Z,52.82
2024-02-03T01:12:01.878Z,55.65
2024-02-03T01:13:01.929Z,54.48
2024-02-03T01:14:01.865Z,53.80
2024-02-03T01:15:01.854Z,51.54
2024-02-03T01:16:01.835Z,50.73
2024-02-03T01:17:01.817Z,52.14
2024-02-03T01:18:01.868Z,54.13
2024-02-03T01:19:01.830Z,52.83
2024-02-03T01:20:01.793Z,57.70
2024-02-03T01:21:01.775Z,51.16
2024-02-03T01:22:01.788Z,53.08
2024-02-03T01:23:01.748Z,51.76
2024-02-03T01:24:01.753Z,47.81
2024-02-03T01:25:01.763Z,49.30
2024-02-03T01:26:01.748Z,51.57
2024-02-03T01:27:01.741Z,52.36
2024-02-03T01:28:01.717Z,59.46
2024-02-03T01:29:01.695Z,53.76
2024-02-03T01:30:01.706Z,50.90
2024-02-03T01:31:01.685Z,51.11
2024-02-03T01:32:01.658Z,51.48
2024-02-03T01:33:01.679Z,50.02
2024-02-03T01:34:01.697Z,55.59
2024-02-03T01:35:01.707Z,53.71
2024-02-03T01:36:01.630Z,49.64
2024-02-03T01:37:01.611Z,50.20
2024-02-03T01:38:01.586Z,52.68
2024-02-03T01:39:01.589Z,49.24
2024-02-03T01:40:01.586Z,54.42
2024-02-03T01:41:01.581Z,49.71
2024-02-03T01:42:01.557Z,52.71
2024-02-03T01:43:01.534Z,50.84
2024-02-03T01:44:01.531Z,52.12
2024-02-03T01:45:01.529Z,52.71
2024-02-03T01:46:01.518Z,53.30
2024-02-03T01:47:01.501Z,50.95
2024-02-03T01:48:01.510Z,53.70
2024-02-03T01:49:01.527Z,52.46
2024-02-03T01:50:01.472Z,55.69
2024-02-03T01:51:01.501Z,49.52
2024-02-03T01:52:01.436Z,55.61
2024-02-03T01:53:01.425Z,51.77
2024-02-03T01:54:01.431Z,48.40
2024-02-03T01:55:01.437Z,52.51
2024-02-03T01:56:01.407Z,57.64
2024-02-03T01:57:01.397Z,51.89
2024-02-03T01:58:01.395Z,51.29
2024-02-03T01:59:01.363Z,54.01
2024-02-03T02:00:01.399Z,49.90
2024-02-03T02:01:01.477Z,55.54
2024-02-03T02:02:01.353Z,55.42
2024-02-03T02:03:01.376Z,50.90
2024-02-03T02:04:01.344Z,54.21
2024-02-03T02:05:01.303Z,51.44
2024-02-03T02:06:01.326Z,55.87
2024-02-03T02:07:02.367Z,50.52
2024-02-03T02:08:01.274Z,53.77
2024-02-03T02:09:01.284Z,51.52
2024-02-03T02:10:01.237Z,54.29
2024-02-03T02:11:01.228Z,48.09
2024-02-03T02:12:01.271Z,49.43
2024-02-03T02:13:01.213Z,48.03
2024-02-03T02:14:01.208Z,49.83
2024-02-03T02:15:01.204Z,52.53
2024-02-03T02:16:01.220Z,52.01
2024-02-03T02:17:01.187Z,50.31
2024-02-03T02:18:01.243Z,50.91
2024-02-03T02:19:01.219Z,51.02
2024-02-03T02:20:01.220Z,54.41
2024-02-03T02:21:01.160Z,54.25
2024-02-03T02:22:01.108Z,51.86
2024-02-03T02:23:01.112Z,52.27
2024-02-03T02:24:01.114Z,54.89
2024-02-03T02:25:01.114Z,52.13
2024-02-03T02:26:01.096Z,49.84
2024-02-03T02:27:01.140Z,53.21
2024-02-03T02:28:01.164Z,51.64
2024-02-03T02:29:01.039Z,52.85
2024-02-03T02:30:01.057Z,58.63
2024-02-03T02:31:01.032Z,47.11
2024-02-03T02:32:01.027Z,53.71
2024-02-03T02:33:01.087Z,51.61
2024-02-03T02:34:01.050Z,51.84
2024-02-03T02:35:01.011Z,52.28
2024-02-03T02:36:00.996Z,56.78
2024-02-03T02:37:00.959Z,60.10
2024-02-03T02:38:00.952Z,54.02
2024-02-03T02:39:00.940Z,53.10
2024-02-03T02:40:01.044Z,48.32
2024-02-03T02:41:00.932Z,47.78
2024-02-03T02:42:00.918Z,49.72
2024-02-03T02:43:00.904Z,46.64
2024-02-03T02:44:00.891Z,49.75
2024-02-03T02:45:00.886Z,53.41
2024-02-03T02:46:00.862Z,54.31
2024-02-03T02:47:00.854Z,54.05
2024-02-03T02:48:00.974Z,56.76
2024-02-03T02:49:00.940Z,51.85
2024-02-03T02:50:00.889Z,48.89
2024-02-03T02:51:00.800Z,56.16
2024-02-03T02:52:00.814Z,54.60
2024-02-03T02:53:00.818Z,54.43
2024-02-03T02:54:00.784Z,49.84
2024-02-03T02:55:00.785Z,53.93
2024-02-03T02:56:01.480Z,52.31
2024-02-03T02:57:01.762Z,46.80
2024-02-03T02:58:00.756Z,46.69
2024-02-03T02:59:00.726Z,52.68
2024-02-03T03:00:00.753Z,49.90
2024-02-03T03:01:00.842Z,53.74
2024-02-03T03:02:00.712Z,52.44
2024-02-03T03:03:00.737Z,51.69
2024-02-03T03:04:00.801Z,50.55
2024-02-03T03:05:00.670Z,46.42
2024-02-03T03:06:00.664Z,48.61
2024-02-03T03:07:00.662Z,51.06
2024-02-03T03:08:00.688Z,49.95
2024-02-03T03:09:00.644Z,51.30
2024-02-03T03:10:00.627Z,49.88
2024-02-03T03:11:00.609Z,50.31
2024-02-03T03:12:00.634Z,48.20
2024-02-03T03:13:00.593Z,50.50
2024-02-03T03:14:00.578Z,51.12
2024-02-03T03:15:00.577Z,49.05
2024-02-03T03:16:00.553Z,51.72
2024-02-03T03:17:00.574Z,48.79
2024-02-03T03:18:00.615Z,50.29
2024-02-03T03:19:00.675Z,52.02
2024-02-03T03:20:00.590Z,50.46
2024-02-03T03:21:00.502Z,49.55
2024-02-03T03:22:00.503Z,49.84
2024-02-03T03:23:00.485Z,48.98
2024-02-03T03:24:00.573Z,49.40
2024-02-03T03:25:00.474Z,53.67
2024-02-03T03:26:00.475Z,49.43
2024-02-03T03:27:00.461Z,55.10
2024-02-03T03:28:00.518Z,52.99
2024-02-03T03:29:00.446Z,52.56
2024-02-03T03:30:00.410Z,56.44
2024-02-03T03:31:00.447Z,48.99
2024-02-03T03:32:00.428Z,53.22
2024-02-03T03:33:00.402Z,52.24
2024-02-03T03:34:00.534Z,55.50
2024-02-03T03:35:00.418Z,50.28
2024-02-03T03:36:00.372Z,49.91
2024-02-03T03:37:00.348Z,52.72
2024-02-03T03:38:00.335Z,52.45
2024-02-03T03:39:00.361Z,53.04
2024-02-03T03:40:00.326Z,56.57
2024-02-03T03:41:00.309Z,53.78
2024-02-03T03:42:00.307Z,52.27
2024-02-03T03:43:00.267Z,52.10
2024-02-03T03:44:00.320Z,47.66
2024-02-03T03:45:00.280Z,48.83
2024-02-03T03:46:00.281Z,50.63
2024-02-03T03:47:00.227Z,51.05
2024-02-03T03:48:00.272Z,52.02
2024-02-03T03:49:00.274Z,50.08
2024-02-03T03:50:00.384Z,53.09
2024-02-03T03:51:00.209Z,54.31
2024-02-03T03:52:00.189Z,53.00
2024-02-03T03:53:00.200Z,50.73
2024-02-03T03:54:00.172Z,53.12
2024-02-03T03:55:00.243Z,57.03
2024-02-03T03:56:00.143Z,50.11
2024-02-03T03:57:00.169Z,52.47
2024-02-03T03:58:00.154Z,49.42
2024-02-03T03:59:00.119Z,51.45
2024-02-03T04:00:00.199Z,51.49
2024-02-03T04:01:00.210Z,50.75
2024-02-03T04:02:00.076Z,56.10
2024-02-03T04:03:00.074Z,49.82
2024-02-03T04:04:00.132Z,50.58
2024-02-03T04:05:00.052Z,48.61
2024-02-03T04:06:00.152Z,50.19
2024-02-03T04:07:00.065Z,50.47
2024-02-03T04:08:00.023Z,51.43
2024-02-03T04:09:00.042Z,51.45
2024-02-03T04:10:00.022Z,52.20
2024-02-03T04:10:59.985Z,53.12
2024-02-03T04:11:59.972Z,56.16
2024-02-03T04:12:59.988Z,55.34
2024-02-03T04:13:59.975Z,53.15
2024-02-03T04:14:59.984Z,53.79
2024-02-03T04:15:59.962Z,51.76
2024-02-03T04:16:59.944Z,59.51
2024-02-03T04:17:59.941Z,52.27
2024-02-03T04:18:59.950Z,53.76
2024-02-03T04:20:00.141Z,55.16
2024-02-03T04:20:59.873Z,53.34
2024-02-03T04:21:59.871Z,55.14
2024-02-03T04:22:59.883Z,54.64
2024-02-03T04:23:59.845Z,50.77
2024-02-03T04:24:59.863Z,51.26
2024-02-03T04:25:59.847Z,57.13
2024-02-03T04:26:59.814Z,55.65
2024-02-03T04:27:59.802Z,57.53
2024-02-03T04:28:59.801Z,55.81
2024-02-03T04:29:59.793Z,55.63
2024-02-03T04:31:00.815Z,59.97
2024-02-03T04:31:59.773Z,55.72
2024-02-03T04:33:00.891Z,55.62
2024-02-03T04:33:59.790Z,54.60
2024-02-03T04:34:59.727Z,56.88
2024-02-03T04:35:59.727Z,57.62
2024-02-03T04:36:59.729Z,54.79
2024-02-03T04:37:59.701Z,56.28
2024-02-03T04:38:59.694Z,54.37
2024-02-03T04:39:59.689Z,55.82
2024-02-03T04:40:59.706Z,52.58
2024-02-03T04:41:59.645Z,55.21
2024-02-03T04:42:59.647Z,58.70
2024-02-03T04:43:59.658Z,55.36
2024-02-03T04:44:59.636Z,57.25
2024-02-03T04:45:59.696Z,55.52
2024-02-03T04:46:59.642Z,62.04
2024-02-03T04:47:59.674Z,58.47
2024-02-03T04:48:59.665Z,56.41
2024-02-03T04:49:59.736Z,53.04
2024-02-03T04:50:59.593Z,54.01
2024-02-03T04:51:59.623Z,57.09
2024-02-03T04:52:59.545Z,54.83
2024-02-03T04:53:59.532Z,55.21
2024-02-03T04:54:59.548Z,56.55
2024-02-03T04:55:59.543Z,54.15
2024-02-03T04:56:59.503Z,55.66
2024-02-03T04:57:59.524Z,58.37
2024-02-03T04:58:59.498Z,53.82
2024-02-03T04:59:59.473Z,55.08
2024-02-03T05:00:59.603Z,52.59
2024-02-03T05:01:59.470Z,51.35
2024-02-03T05:02:59.496Z,55.39
2024-02-03T05:03:59.464Z,56.56
2024-02-03T05:04:59.516Z,55.47
2024-02-03T05:05:59.432Z,56.76
2024-02-03T05:06:59.403Z,54.23
2024-02-03T05:07:59.406Z,52.46
2024-02-03T05:08:59.364Z,54.47
2024-02-03T05:09:59.373Z,55.55
2024-02-03T05:10:59.355Z,55.40
2024-02-03T05:11:59.346Z,53.05
2024-02-03T05:12:59.377Z,53.23
2024-02-03T05:13:59.318Z,53.02
2024-02-03T05:15:00.560Z,52.85
2024-02-03T05:15:59.307Z,56.07
2024-02-03T05:16:59.308Z,55.41
2024-02-03T05:17:59.351Z,52.02
2024-02-03T05:18:59.351Z,52.15
2024-02-03T05:19:59.259Z,56.42
2024-02-03T05:20:59.248Z,55.93
2024-02-03T05:21:59.275Z,60.01
2024-02-03T05:22:59.236Z,55.79
2024-02-03T05:24:31.164Z,58.93
2024-02-03T05:24:59.312Z,55.85
2024-02-03T05:25:59.193Z,60.19
2024-02-03T05:26:59.161Z,53.71
2024-02-03T05:28:00.198Z,58.74
2024-02-03T05:28:59.172Z,55.81
2024-02-03T05:29:59.192Z,54.44
2024-02-03T05:30:59.175Z,57.42
2024-02-03T05:31:59.141Z,56.23
2024-02-03T05:32:59.141Z,54.87
2024-02-03T05:33:59.196Z,57.78
2024-02-03T05:34:59.121Z,53.87
2024-02-03T05:35:59.113Z,56.32
2024-02-03T05:36:59.080Z,56.76
2024-02-03T05:37:59.079Z,58.68
2024-02-03T05:38:59.106Z,59.35
2024-02-03T05:39:59.137Z,59.27
2024-02-03T05:40:59.041Z,60.85
2024-02-03T05:41:59.012Z,57.25
2024-02-03T05:43:00.014Z,57.48
2024-02-03T05:43:58.980Z,57.34
2024-02-03T05:44:59.006Z,58.46
2024-02-03T05:45:58.989Z,55.80
2024-02-03T05:46:58.975Z,55.52
2024-02-03T05:47:58.956Z,59.03
2024-02-03T05:48:59.017Z,55.83
2024-02-03T05:49:58.998Z,55.31
2024-02-03T05:50:58.917Z,58.89
2024-02-03T05:51:58.963Z,55.32
2024-02-03T05:52:58.940Z,52.59
2024-02-03T05:53:58.894Z,55.30
2024-02-03T05:54:58.860Z,54.70
2024-02-03T05:55:58.914Z,56.65
2024-02-03T05:56:58.848Z,56.28
2024-02-03T05:57:58.914Z,56.84
2024-02-03T05:59:13.935Z,58.47
2024-02-03T06:00:00.846Z,56.87
2024-02-03T06:00:58.923Z,53.10
2024-02-03T06:02:01.325Z,53.32
2024-02-03T06:02:58.822Z,56.82
2024-02-03T06:03:58.829Z,56.49
2024-02-03T06:04:58.886Z,59.10
2024-02-03T06:06:13.240Z,56.04
2024-02-03T06:07:00.861Z,54.30
2024-02-03T06:07:58.889Z,52.75
2024-02-03T06:08:58.762Z,56.90
2024-02-03T06:09:58.824Z,54.67
2024-02-03T06:10:58.741Z,54.09
2024-02-03T06:11:58.733Z,55.96
2024-02-03T06:12:58.718Z,59.00
2024-02-03T06:13:58.717Z,54.60
2024-02-03T06:14:58.700Z,55.85
2024-02-03T06:15:58.747Z,52.78
2024-02-03T06:16:58.654Z,56.03
2024-02-03T06:17:58.773Z,56.42
2024-02-03T06:18:59.739Z,56.33
2024-02-03T06:19:58.726Z,55.84
2024-02-03T06:20:58.603Z,57.59
2024-02-03T06:21:58.650Z,58.97
2024-02-03T06:22:58.620Z,53.92
2024-02-03T06:23:58.593Z,53.35
2024-02-03T06:24:58.658Z,55.38
2024-02-03T06:25:58.588Z,54.53
2024-02-03T06:26:58.574Z,56.59
2024-02-03T06:27:58.640Z,56.21
2024-02-03T06:28:58.545Z,56.56
2024-02-03T06:29:58.531Z,58.14
2024-02-03T06:30:58.533Z,58.27
2024-02-03T06:31:58.512Z,55.85
2024-02-03T06:32:59.628Z,57.96
2024-02-03T06:33:58.620Z,57.20
2024-02-03T06:34:58.599Z,58.05
2024-02-03T06:35:58.482Z,57.23
2024-02-03T06:36:58.483Z,53.12
2024-02-03T06:37:58.450Z,53.20
2024-02-03T06:38:58.449Z,52.86
2024-02-03T06:39:58.455Z,53.93
2024-02-03T06:40:58.415Z,55.82
2024-02-03T06:41:58.410Z,54.75
2024-02-03T06:42:58.443Z,57.34
2024-02-03T06:43:58.384Z,57.87
2024-02-03T06:44:58.379Z,57.95
2024-02-03T06:45:58.439Z,56.08
2024-02-03T06:46:58.343Z,56.21
2024-02-03T06:47:58.504Z,58.96
2024-02-03T06:48:58.393Z,57.54
2024-02-03T06:49:58.448Z,54.74
2024-02-03T06:50:58.298Z,55.09
2024-02-03T06:51:58.366Z,55.49
2024-02-03T06:52:58.348Z,56.79
2024-02-03T06:53:58.314Z,56.90
2024-02-03T06:54:58.290Z,56.43
2024-02-03T06:55:58.260Z,57.35
2024-02-03T06:56:58.271Z,56.60
2024-02-03T06:57:58.301Z,58.56
2024-02-03T06:58:58.219Z,56.58
2024-02-03T06:59:58.227Z,60.37
2024-02-03T07:00:59.419Z,59.28
2024-02-03T07:01:58.220Z,55.57
2024-02-03T07:02:58.203Z,58.29
2024-02-03T07:03:58.368Z,56.99
2024-02-03T07:04:58.193Z,57.53
2024-02-03T07:05:58.232Z,57.64
2024-02-03T07:06:58.214Z,56.05
2024-02-03T07:07:58.110Z,59.71
2024-02-03T07:08:58.151Z,57.14
2024-02-03T07:09:58.160Z,57.72
2024-02-03T07:10:58.088Z,57.24
2024-02-03T07:12:04.084Z,54.86
2024-02-03T07:12:59.156Z,57.05
2024-02-03T07:13:58.123Z,58.44
2024-02-03T07:14:58.068Z,56.87
2024-02-03T07:15:58.142Z,57.89
2024-02-03T07:16:58.009Z,56.44
2024-02-03T07:17:58.124Z,57.14
2024-02-03T07:18:58.056Z,56.34
2024-02-03T07:19:58.095Z,57.20
2024-02-03T07:20:57.968Z,56.76
2024-02-03T07:21:57.992Z,55.86
2024-02-03T07:22:57.995Z,58.51
2024-02-03T07:23:58.011Z,58.12
2024-02-03T07:24:57.971Z,59.69
2024-02-03T07:25:57.961Z,59.66
2024-02-03T07:26:57.981Z,62.01
2024-02-03T07:27:57.981Z,63.82
2024-02-03T07:28:57.890Z,64.83
2024-02-03T07:29:57.924Z,64.62
2024-02-03T07:30:58.046Z,64.35
2024-02-03T07:31:57.861Z,59.84
2024-02-03T07:32:57.924Z,60.48
2024-02-03T07:33:57.908Z,58.64
2024-02-03T07:34:57.946Z,60.75
2024-02-03T07:35:57.856Z,60.89
2024-02-03T07:36:57.974Z,56.72
2024-02-03T07:37:57.823Z,60.62
2024-02-03T07:38:57.798Z,58.10
2024-02-03T07:39:57.862Z,56.91
2024-02-03T07:40:57.773Z,57.73
2024-02-03T07:41:57.795Z,57.54
2024-02-03T07:42:57.849Z,56.46
2024-02-03T07:43:57.776Z,56.42
2024-02-03T07:44:57.731Z,62.74
2024-02-03T07:45:57.812Z,61.41
2024-02-03T07:46:57.739Z,60.32
2024-02-03T07:47:58.183Z,61.47
2024-02-03T07:48:58.420Z,60.38
2024-02-03T07:49:57.876Z,61.39
2024-02-03T07:50:57.703Z,59.90
2024-02-03T07:52:02.247Z,55.83
2024-02-03T07:52:59.697Z,60.54
2024-02-03T07:53:57.728Z,58.42
2024-02-03T07:54:57.808Z,58.85
2024-02-03T07:55:57.712Z,57.84
2024-02-03T07:56:57.700Z,56.72
2024-02-03T07:57:57.659Z,59.19
2024-02-03T07:58:57.626Z,58.90
2024-02-03T07:59:57.602Z,58.53
2024-02-03T08:00:57.626Z,58.34
2024-02-03T08:01:57.602Z,60.24
2024-02-03T08:02:57.568Z,58.91
2024-02-03T08:03:57.617Z,57.14
2024-02-03T08:04:57.693Z,61.72
2024-02-03T08:05:57.597Z,59.03
2024-02-03T08:06:58.716Z,60.70
2024-02-03T08:07:57.511Z,60.06
2024-02-03T08:08:57.524Z,61.72
2024-02-03T08:09:57.506Z,59.21
2024-02-03T08:10:57.462Z,60.35
2024-02-03T08:11:57.531Z,58.74
2024-02-03T08:12:57.514Z,60.75
2024-02-03T08:13:57.464Z,57.64
2024-02-03T08:14:57.509Z,60.96
2024-02-03T08:15:57.467Z,59.81
2024-02-03T08:16:57.403Z,61.13
2024-02-03T08:17:57.439Z,60.78
2024-02-03T08:18:57.533Z,59.23
2024-02-03T08:19:57.373Z,60.84
2024-02-03T08:20:57.424Z,60.62
2024-02-03T08:21:57.390Z,61.50
2024-02-03T08:22:57.342Z,58.84
2024-02-03T08:23:57.339Z,60.92
2024-02-03T08:24:58.366Z,58.85
2024-02-03T08:25:57.337Z,61.41
2024-02-03T08:26:57.291Z,61.21
2024-02-03T08:27:57.363Z,60.72
2024-02-03T08:28:57.290Z,58.95
2024-02-03T08:29:57.288Z,56.13
2024-02-03T08:30:57.303Z,58.20
2024-02-03T08:31:57.251Z,56.56
2024-02-03T08:32:57.399Z,62.58
2024-02-03T08:33:57.463Z,59.91
2024-02-03T08:35:58.847Z,60.92
2024-02-03T08:36:57.200Z,60.24
2024-02-03T08:37:57.229Z,60.52
2024-02-03T08:38:57.177Z,58.74
2024-02-03T08:39:57.206Z,59.72
2024-02-03T08:40:57.159Z,60.76
2024-02-03T08:41:57.146Z,59.08
2024-02-03T08:42:57.254Z,58.93
2024-02-03T08:43:57.102Z,59.65
2024-02-03T08:44:57.114Z,63.60
2024-02-03T08:45:57.180Z,62.12
2024-02-03T08:46:57.113Z,60.48
2024-02-03T08:47:57.174Z,59.32
2024-02-03T08:48:57.243Z,59.20
2024-02-03T08:49:57.077Z,59.70
2024-02-03T08:50:57.035Z,61.35
2024-02-03T08:51:57.230Z,59.29
2024-02-03T08:52:57.028Z,59.09
2024-02-03T08:53:57.008Z,60.74
2024-02-03T08:54:57.033Z,60.42
2024-02-03T08:55:57.003Z,62.01
2024-02-03T08:56:57.007Z,59.69
2024-02-03T08:57:57.047Z,61.15
2024-02-03T08:58:57.003Z,59.41
2024-02-03T08:59:57.034Z,62.40
2024-02-03T09:00:57.106Z,59.43
2024-02-03T09:01:56.963Z,60.07
2024-02-03T09:02:57.021Z,59.66
2024-02-03T09:03:56.960Z,60.52
2024-02-03T09:04:56.884Z,60.22
2024-02-03T09:05:56.911Z,60.44
2024-02-03T09:06:56.899Z,63.43
2024-02-03T09:07:56.861Z,60.37
2024-02-03T09:08:56.884Z,63.80
2024-02-03T09:09:58.863Z,60.91
2024-02-03T09:10:56.829Z,63.07
2024-02-03T09:11:56.842Z,60.29
2024-02-03T09:12:56.875Z,59.40
2024-02-03T09:13:56.832Z,59.88
2024-02-03T09:14:56.764Z,60.88
2024-02-03T09:15:57.932Z,61.55
2024-02-03T09:16:57.852Z,60.36
2024-02-03T09:17:56.861Z,59.15
2024-02-03T09:18:56.864Z,62.08
2024-02-03T09:19:56.888Z,63.09
2024-02-03T09:20:56.758Z,63.72
2024-02-03T09:21:57.342Z,64.06
2024-02-03T09:22:56.763Z,64.97
2024-02-03T09:23:57.714Z,66.11
2024-02-03T09:24:56.743Z,67.29
2024-02-03T09:25:56.811Z,67.34
2024-02-03T09:26:56.729Z,65.81
2024-02-03T09:27:56.787Z,65.05
2024-02-03T09:28:56.754Z,61.60
2024-02-03T09:29:56.647Z,58.62
2024-02-03T09:30:56.723Z,58.81
2024-02-03T09:31:58.909Z,59.97
2024-02-03T09:32:57.640Z,60.48
2024-02-03T09:33:57.727Z,62.49
2024-02-03T09:34:56.563Z,59.80
2024-02-03T09:35:56.618Z,60.54
2024-02-03T09:37:59.708Z,61.59
2024-02-03T09:38:57.534Z,62.40
2024-02-03T09:39:56.650Z,63.30
2024-02-03T09:40:57.522Z,65.69
2024-02-03T09:41:56.543Z,63.27
2024-02-03T09:42:56.569Z,61.46
2024-02-03T09:43:56.545Z,62.02
2024-02-03T09:44:56.483Z,63.85
2024-02-03T09:45:56.506Z,64.06
2024-02-03T09:46:56.519Z,62.42
2024-02-03T09:47:56.636Z,61.50
2024-02-03T09:48:56.557Z,62.42
2024-02-03T09:49:56.466Z,60.86
2024-02-03T09:50:56.418Z,64.14
2024-02-03T09:51:56.470Z,62.44
2024-02-03T09:52:56.457Z,63.74
2024-02-03T09:53:56.407Z,63.03
2024-02-03T09:54:56.465Z,63.61
2024-02-03T09:55:56.418Z,63.54
2024-02-03T09:56:56.383Z,61.65
2024-02-03T09:57:56.426Z,61.29
2024-02-03T09:58:56.393Z,63.12
2024-02-03T09:59:56.374Z,64.28
2024-02-03T10:00:56.493Z,61.85
2024-02-03T10:01:56.306Z,62.25
2024-02-03T10:02:56.358Z,63.07
2024-02-03T10:03:56.381Z,63.20
2024-02-03T10:04:56.341Z,63.83
2024-02-03T10:05:56.289Z,60.38
2024-02-03T10:06:56.296Z,61.88
2024-02-03T10:07:56.280Z,61.56
2024-02-03T10:08:56.248Z,65.47
2024-02-03T10:10:57.323Z,61.84
2024-02-03T10:11:56.305Z,62.45
2024-02-03T10:12:56.282Z,62.00
2024-02-03T10:13:56.183Z,61.08
2024-02-03T10:14:56.192Z,62.10
2024-02-03T10:15:56.238Z,65.15
2024-02-03T10:16:56.185Z,65.01
2024-02-03T10:17:56.193Z,62.30
2024-02-03T10:18:56.205Z,63.45
2024-02-03T10:19:56.229Z,63.18
2024-02-03T10:20:56.179Z,61.73
2024-02-03T10:21:56.250Z,61.42
2024-02-03T10:22:56.108Z,63.54
2024-02-03T10:23:56.087Z,64.65
2024-02-03T10:24:56.170Z,63.36
2024-02-03T10:25:56.080Z,61.40
2024-02-03T10:26:56.045Z,63.75
2024-02-03T10:27:56.103Z,60.77
2024-02-03T10:28:56.021Z,64.21
2024-02-03T10:29:56.089Z,65.82
2024-02-03T10:30:57.905Z,66.96
2024-02-03T10:31:56.043Z,67.34
2024-02-03T10:32:56.009Z,66.16
2024-02-03T10:33:56.175Z,64.50
2024-02-03T10:34:56.483Z,66.23
2024-02-03T10:35:55.970Z,65.54
2024-02-03T10:36:55.964Z,66.98
2024-02-03T10:37:56.031Z,66.66
2024-02-03T10:38:55.939Z,66.56
2024-02-03T10:39:56.022Z,66.83
2024-02-03T10:40:55.900Z,66.21
2024-02-03T10:41:55.899Z,66.80
2024-02-03T10:42:56.888Z,65.84
2024-02-03T10:43:55.871Z,66.22
2024-02-03T10:44:55.882Z,66.22
2024-02-03T10:45:56.039Z,66.73
2024-02-03T10:46:55.832Z,66.24
2024-02-03T10:47:55.966Z,66.07
2024-02-03T10:48:55.910Z,66.82
2024-02-03T10:49:55.980Z,66.47
2024-02-03T10:50:55.826Z,66.31
2024-02-03T10:51:55.828Z,66.32
2024-02-03T10:52:55.761Z,70.38
2024-02-03T10:53:55.772Z,65.81
2024-02-03T10:54:55.936Z,65.92
2024-02-03T10:55:55.778Z,65.82
2024-02-03T10:56:55.762Z,62.22
2024-02-03T10:57:55.761Z,63.01
2024-02-03T10:58:57.697Z,62.94
2024-02-03T10:59:55.705Z,61.93
2024-02-03T11:00:56.884Z,59.61
2024-02-03T11:01:55.703Z,63.06
2024-02-03T11:02:55.693Z,61.97
2024-02-03T11:03:55.805Z,62.66
2024-02-03T11:04:56.422Z,62.06
2024-02-03T11:05:55.692Z,61.22
2024-02-03T11:06:55.719Z,59.41
2024-02-03T11:07:55.723Z,62.42
2024-02-03T11:08:55.768Z,60.93
2024-02-03T11:09:55.701Z,62.89
2024-02-03T11:10:55.564Z,61.33
2024-02-03T11:11:55.705Z,63.93
2024-02-03T11:12:55.578Z,61.47
2024-02-03T11:13:55.575Z,60.65
2024-02-03T11:14:55.552Z,62.86
2024-02-03T11:15:55.599Z,62.24
2024-02-03T11:16:56.916Z,61.75
2024-02-03T11:17:55.639Z,61.36
2024-02-03T11:18:55.631Z,60.57
2024-02-03T11:19:55.636Z,63.78
2024-02-03T11:20:55.542Z,65.70
2024-02-03T11:21:55.516Z,66.95
2024-02-03T11:22:56.208Z,66.54
2024-02-03T11:23:55.447Z,64.95
2024-02-03T11:25:27.766Z,66.20
2024-02-03T11:25:55.456Z,65.09
2024-02-03T11:26:55.456Z,65.93
2024-02-03T11:27:55.563Z,65.86
2024-02-03T11:28:57.024Z,65.53
2024-02-03T11:29:55.397Z,65.56
2024-02-03T11:30:55.470Z,66.44
2024-02-03T11:31:55.358Z,66.92
2024-02-03T11:32:55.465Z,65.04
2024-02-03T11:33:55.421Z,66.16
2024-02-03T11:34:55.958Z,66.95
2024-02-03T11:35:55.322Z,66.26
2024-02-03T11:36:55.351Z,66.99
2024-02-03T11:37:55.358Z,68.45
2024-02-03T11:38:55.362Z,66.75
2024-02-03T11:39:55.330Z,63.04
2024-02-03T11:40:55.774Z,61.10
2024-02-03T11:41:55.308Z,63.61
2024-02-03T11:42:55.284Z,60.89
2024-02-03T11:43:55.221Z,63.50
2024-02-03T11:44:55.231Z,62.18
2024-02-03T11:45:55.262Z,61.89
2024-02-03T11:46:55.727Z,63.14
2024-02-03T11:47:55.207Z,63.29
2024-02-03T11:48:55.336Z,60.55
2024-02-03T11:49:55.264Z,62.46
2024-02-03T11:50:55.154Z,66.46
2024-02-03T11:51:55.223Z,66.31
2024-02-03T11:52:55.152Z,66.23
2024-02-03T11:53:55.118Z,68.21
2024-02-03T11:54:55.603Z,68.17
2024-02-03T11:55:55.100Z,65.09
2024-02-03T11:56:55.101Z,65.67
2024-02-03T11:57:55.164Z,65.55
2024-02-03T11:58:55.089Z,66.18
2024-02-03T11:59:55.076Z,65.52
2024-02-03T12:00:55.088Z,65.63
2024-02-03T12:01:55.047Z,65.47
2024-02-03T12:02:55.019Z,65.84
2024-02-03T12:03:55.081Z,65.32
2024-02-03T12:04:55.047Z,65.47
2024-02-03T12:05:54.982Z,65.64
2024-02-03T12:06:55.077Z,62.17
2024-02-03T12:07:55.024Z,63.77
2024-02-03T12:08:54.965Z,62.50
2024-02-03T12:09:55.052Z,62.06
2024-02-03T12:10:54.978Z,62.30
2024-02-03T12:11:54.925Z,61.20
2024-02-03T12:12:54.985Z,61.02
2024-02-03T12:13:54.920Z,65.16
2024-02-03T12:14:54.911Z,64.71
2024-02-03T12:15:54.933Z,65.29
2024-02-03T12:16:54.871Z,65.24
2024-02-03T12:17:54.917Z,64.60
2024-02-03T12:18:54.966Z,67.05
2024-02-03T12:19:54.868Z,66.36
2024-02-03T12:20:54.844Z,66.10
2024-02-03T12:21:54.907Z,65.18
2024-02-03T12:22:54.836Z,65.38
2024-02-03T12:23:54.810Z,62.35
2024-02-03T12:24:54.954Z,60.29
2024-02-03T12:25:54.774Z,61.21
2024-02-03T12:26:54.807Z,58.72
2024-02-03T12:27:54.876Z,58.32
2024-02-03T12:28:54.774Z,60.98
2024-02-03T12:29:54.741Z,60.92
2024-02-03T12:30:54.840Z,63.40
2024-02-03T12:31:54.727Z,58.81
2024-02-03T12:32:54.742Z,60.25
2024-02-03T12:33:54.744Z,59.92
2024-02-03T12:34:54.800Z,57.64
2024-02-03T12:35:54.678Z,60.72
2024-02-03T12:36:54.778Z,61.85
2024-02-03T12:37:54.656Z,61.55
2024-02-03T12:38:54.637Z,60.54
2024-02-03T12:39:54.701Z,65.24
2024-02-03T12:40:54.598Z,64.08
2024-02-03T12:41:54.606Z,65.17
2024-02-03T12:42:54.687Z,65.83
2024-02-03T12:43:54.582Z,61.80
2024-02-03T12:44:54.555Z,60.03
2024-02-03T12:45:54.581Z,60.53
2024-02-03T12:46:54.536Z,60.71
2024-02-03T12:47:54.570Z,63.83
2024-02-03T12:48:54.656Z,58.34
2024-02-03T12:49:54.573Z,57.83
2024-02-03T12:50:54.501Z,61.90
2024-02-03T12:51:54.667Z,68.14
2024-02-03T12:52:54.459Z,68.25
2024-02-03T12:53:54.495Z,65.32
2024-02-03T12:54:54.489Z,65.30